sensor_id;sensor_type;location;lat;lon;timestamp;pressure;altitude;pressure_sealevel;temperature;humidity
45872;BME280;32333;55.844;-3.210;2024-02-23T00:02:14;95543.57;;;-0.67;100.00
45872;BME280;32333;55.844;-3.210;2024-02-23T00:04:42;95538.81;;;-0.23;100.00
45872;BME280;32333;55.844;-3.210;2024-02-23T00:07:12;95530.49;;;0.84;100.00
45872;BME280;32333;55.844;-3.210;2024-02-23T00:09:42;95532.03;;;0.86;100.00
45872;BME280;32333;55.844;-3.210;2024-02-23T00:14:37;95530.91;;;0.24;100.00
45872;BME280;32333;55.844;-3.210;2024-02-23T00:17:24;95533.52;;;-0.10;100.00
45872;BME280;32333;55.844;-3.210;2024-02-23T00:19:51;95535.61;;;0.49;100.00
45872;BME280;32333;55.844;-3.210;2024-02-23T00:22:20;95535.08;;;-0.66;100.00
45872;BME280;32333;55.844;-3.210;2024-02-23T00:24:47;95530.16;;;-0.07;100.00
45872;BME280;32333;55.844;-3.210;2024-02-23T00:27:15;95534.92;;;0.08;100.00
45872;BME280;32333;55.844;-3.210;2024-02-23T00:29:43;95531.69;;;0.67;100.00
45872;BME280;32333;55.844;-3.210;2024-02-23T00:32:10;95529.72;;;1.43;100.00
45872;BME280;32333;55.844;-3.210;2024-02-23T00:34:38;95527.87;;;0.86;100.00
45872;BME280;32333;55.844;-3.210;2024-02-23T00:37:07;95527.11;;;1.28;100.00
45872;BME280;32333;55.844;-3.210;2024-02-23T00:39:35;95522.43;;;1.75;100.00
45872;BME280;32333;55.844;-3.210;2024-02-23T00:44:35;95525.51;;;0.99;100.00
45872;BME280;32333;55.844;-3.210;2024-02-23T00:47:05;95522.20;;;1.39;100.00
45872;BME280;32333;55.844;-3.210;2024-02-23T00:49:34;95516.15;;;1.13;100.00
45872;BME280;32333;55.844;-3.210;2024-02-23T00:52:01;95516.89;;;0.79;100.00
45872;BME280;32333;55.844;-3.210;2024-02-23T00:54:29;95514.66;;;1.24;100.00
45872;BME280;32333;55.844;-3.210;2024-02-23T00:56:56;95508.02;;;1.60;100.00
45872;BME280;32333;55.844;-3.210;2024-02-23T00:59:24;95506.79;;;0.88;100.00
45872;BME280;32333;55.844;-3.210;2024-02-23T01:01:51;95504.67;;;0.48;100.00
45872;BME280;32333;55.844;-3.210;2024-02-23T01:04:19;95506.08;;;0.17;100.00
45872;BME280;32333;55.844;-3.210;2024-02-23T01:06:47;95507.58;;;0.31;100.00
45872;BME280;32333;55.844;-3.210;2024-02-23T01:09:14;95508.13;;;0.41;100.00
45872;BME280;32333;55.844;-3.210;2024-02-23T01:11:42;95504.84;;;-0.00;100.00
45872;BME280;32333;55.844;-3.210;2024-02-23T01:14:34;95498.52;;;-0.08;100.00
45872;BME280;32333;55.844;-3.210;2024-02-23T01:17:02;95492.89;;;-0.00;100.00
45872;BME280;32333;55.844;-3.210;2024-02-23T01:19:31;95493.75;;;-0.19;100.00
45872;BME280;32333;55.844;-3.210;2024-02-23T01:22:00;95489.27;;;-0.24;100.00
45872;BME280;32333;55.844;-3.210;2024-02-23T01:24:27;95488.66;;;-0.39;100.00
45872;BME280;32333;55.844;-3.210;2024-02-23T01:27:06;95487.67;;;-0.05;100.00
45872;BME280;32333;55.844;-3.210;2024-02-23T01:29:34;95477.50;;;0.00;100.00
45872;BME280;32333;55.844;-3.210;2024-02-23T01:32:02;95477.33;;;-0.23;100.00
45872;BME280;32333;55.844;-3.210;2024-02-23T01:34:30;95468.92;;;0.21;100.00
45872;BME280;32333;55.844;-3.210;2024-02-23T01:36:57;95474.09;;;0.11;100.00
45872;BME280;32333;55.844;-3.210;2024-02-23T01:39:25;95473.62;;;0.32;100.00
45872;BME280;32333;55.844;-3.210;2024-02-23T01:41:55;95474.79;;;0.24;100.00
45872;BME280;32333;55.844;-3.210;2024-02-23T01:44:36;95473.55;;;0.37;100.00
45872;BME280;32333;55.844;-3.210;2024-02-23T01:47:05;95468.08;;;-0.04;100.00
45872;BME280;32333;55.844;-3.210;2024-02-23T01:49:34;95476.30;;;-0.59;100.00
45872;BME280;32333;55.844;-3.210;2024-02-23T01:52:02;95477.58;;;-0.29;100.00
45872;BME280;32333;55.844;-3.210;2024-02-23T01:54:31;95478.34;;;-0.53;100.00
45872;BME280;32333;55.844;-3.210;2024-02-23T01:57:00;95473.76;;;0.50;100.00
45872;BME280;32333;55.844;-3.210;2024-02-23T01:59:29;95469.49;;;0.00;100.00
45872;BME280;32333;55.844;-3.210;2024-02-23T02:01:57;95462.76;;;0.19;100.00
45872;BME280;32333;55.844;-3.210;2024-02-23T02:04:25;95463.22;;;0.03;100.00
45872;BME280;32333;55.844;-3.210;2024-02-23T02:06:53;95464.54;;;-0.26;100.00
45872;BME280;32333;55.844;-3.210;2024-02-23T02:09:20;95463.38;;;-0.14;100.00
45872;BME280;32333;55.844;-3.210;2024-02-23T02:11:48;95466.81;;;0.19;100.00
45872;BME280;32333;55.844;-3.210;2024-02-23T02:14:35;95462.01;;;0.47;100.00
45872;BME280;32333;55.844;-3.210;2024-02-23T02:17:06;95470.45;;;-0.22;100.00
45872;BME280;32333;55.844;-3.210;2024-02-23T02:19:36;95471.44;;;-0.26;100.00
45872;BME280;32333;55.844;-3.210;2024-02-23T02:22:05;95460.54;;;0.12;100.00
45872;BME280;32333;55.844;-3.210;2024-02-23T02:24:33;95459.73;;;-0.44;100.00
45872;BME280;32333;55.844;-3.210;2024-02-23T02:27:15;95461.14;;;-0.63;100.00
45872;BME280;32333;55.844;-3.210;2024-02-23T02:29:43;95459.61;;;-0.20;100.00
45872;BME280;32333;55.844;-3.210;2024-02-23T02:32:11;95458.49;;;-0.27;100.00
45872;BME280;32333;55.844;-3.210;2024-02-23T02:34:41;95456.73;;;-0.44;100.00
45872;BME280;32333;55.844;-3.210;2024-02-23T02:37:08;95451.94;;;-0.46;100.00
45872;BME280;32333;55.844;-3.210;2024-02-23T02:39:37;95446.25;;;-0.56;100.00
45872;BME280;32333;55.844;-3.210;2024-02-23T02:44:35;95441.49;;;-0.71;100.00
45872;BME280;32333;55.844;-3.210;2024-02-23T02:47:02;95437.73;;;-0.37;100.00
45872;BME280;32333;55.844;-3.210;2024-02-23T02:49:30;95443.46;;;-0.66;100.00
45872;BME280;32333;55.844;-3.210;2024-02-23T02:51:57;95436.81;;;-0.66;100.00
45872;BME280;32333;55.844;-3.210;2024-02-23T02:54:26;95436.44;;;-0.78;100.00
45872;BME280;32333;55.844;-3.210;2024-02-23T02:56:53;95433.43;;;-0.24;100.00
45872;BME280;32333;55.844;-3.210;2024-02-23T02:59:22;95435.79;;;-0.48;100.00
45872;BME280;32333;55.844;-3.210;2024-02-23T03:01:50;95430.86;;;-0.56;100.00
45872;BME280;32333;55.844;-3.210;2024-02-23T03:04:18;95428.55;;;-0.28;100.00
45872;BME280;32333;55.844;-3.210;2024-02-23T03:06:45;95424.98;;;-0.32;100.00
45872;BME280;32333;55.844;-3.210;2024-02-23T03:09:13;95430.18;;;0.01;100.00
45872;BME280;32333;55.844;-3.210;2024-02-23T03:11:40;95426.69;;;0.22;100.00
45872;BME280;32333;55.844;-3.210;2024-02-23T03:14:37;95428.34;;;0.38;100.00
45872;BME280;32333;55.844;-3.210;2024-02-23T03:17:06;95422.91;;;0.47;100.00
45872;BME280;32333;55.844;-3.210;2024-02-23T03:19:36;95428.81;;;0.23;100.00
45872;BME280;32333;55.844;-3.210;2024-02-23T03:22:04;95426.23;;;0.08;100.00
45872;BME280;32333;55.844;-3.210;2024-02-23T03:24:35;95428.59;;;0.87;100.00
45872;BME280;32333;55.844;-3.210;2024-02-23T03:27:04;95437.75;;;0.19;100.00
45872;BME280;32333;55.844;-3.210;2024-02-23T03:29:32;95440.87;;;-0.70;100.00
45872;BME280;32333;55.844;-3.210;2024-02-23T03:32:00;95440.65;;;0.07;100.00
45872;BME280;32333;55.844;-3.210;2024-02-23T03:34:28;95439.36;;;0.23;100.00
45872;BME280;32333;55.844;-3.210;2024-02-23T03:44:58;95431.34;;;-0.10;100.00
45872;BME280;32333;55.844;-3.210;2024-02-23T03:47:26;95433.52;;;-0.09;100.00
45872;BME280;32333;55.844;-3.210;2024-02-23T03:49:55;95438.93;;;0.24;100.00
45872;BME280;32333;55.844;-3.210;2024-02-23T03:52:23;95436.96;;;0.09;100.00
45872;BME280;32333;55.844;-3.210;2024-02-23T03:54:51;95440.78;;;-0.18;100.00
45872;BME280;32333;55.844;-3.210;2024-02-23T03:57:20;95442.05;;;-0.16;100.00
45872;BME280;32333;55.844;-3.210;2024-02-23T03:59:56;95448.46;;;0.25;100.00
45872;BME280;32333;55.844;-3.210;2024-02-23T04:02:25;95449.23;;;0.23;100.00
45872;BME280;32333;55.844;-3.210;2024-02-23T04:04:53;95454.07;;;0.17;100.00
45872;BME280;32333;55.844;-3.210;2024-02-23T04:07:22;95460.66;;;-0.30;100.00
45872;BME280;32333;55.844;-3.210;2024-02-23T04:09:51;95459.96;;;0.16;100.00
45872;BME280;32333;55.844;-3.210;2024-02-23T04:14:37;95468.75;;;0.56;100.00
45872;BME280;32333;55.844;-3.210;2024-02-23T04:17:06;95469.65;;;0.44;100.00
45872;BME280;32333;55.844;-3.210;2024-02-23T04:19:36;95465.61;;;0.59;100.00
45872;BME280;32333;55.844;-3.210;2024-02-23T04:22:06;95473.11;;;0.09;100.00
45872;BME280;32333;55.844;-3.210;2024-02-23T04:24:35;95475.26;;;0.45;100.00
45872;BME280;32333;55.844;-3.210;2024-02-23T04:27:04;95478.98;;;0.24;100.00
45872;BME280;32333;55.844;-3.210;2024-02-23T04:29:34;95478.45;;;0.01;100.00
45872;BME280;32333;55.844;-3.210;2024-02-23T04:32:04;95484.48;;;0.51;100.00
45872;BME280;32333;55.844;-3.210;2024-02-23T04:34:32;95481.93;;;0.16;100.00
45872;BME280;32333;55.844;-3.210;2024-02-23T04:37:00;95485.72;;;1.52;100.00
45872;BME280;32333;55.844;-3.210;2024-02-23T04:39:28;95492.13;;;0.57;100.00
45872;BME280;32333;55.844;-3.210;2024-02-23T04:41:56;95496.15;;;0.95;100.00
45872;BME280;32333;55.844;-3.210;2024-02-23T04:44:36;95498.90;;;1.26;100.00
45872;BME280;32333;55.844;-3.210;2024-02-23T04:47:04;95500.17;;;0.76;100.00
45872;BME280;32333;55.844;-3.210;2024-02-23T04:49:31;95498.83;;;1.82;100.00
45872;BME280;32333;55.844;-3.210;2024-02-23T04:52:00;95499.99;;;0.43;100.00
45872;BME280;32333;55.844;-3.210;2024-02-23T04:54:27;95500.19;;;0.60;100.00
45872;BME280;32333;55.844;-3.210;2024-02-23T04:56:56;95502.57;;;1.39;100.00
45872;BME280;32333;55.844;-3.210;2024-02-23T04:59:24;95504.86;;;1.35;100.00
45872;BME280;32333;55.844;-3.210;2024-02-23T05:01:52;95507.36;;;0.74;100.00
45872;BME280;32333;55.844;-3.210;2024-02-23T05:04:19;95505.49;;;0.52;100.00
45872;BME280;32333;55.844;-3.210;2024-02-23T05:06:47;95502.97;;;0.76;100.00
45872;BME280;32333;55.844;-3.210;2024-02-23T05:09:15;95510.10;;;-0.02;100.00
45872;BME280;32333;55.844;-3.210;2024-02-23T05:11:42;95514.25;;;0.74;100.00
45872;BME280;32333;55.844;-3.210;2024-02-23T05:14:36;95512.40;;;1.26;100.00
45872;BME280;32333;55.844;-3.210;2024-02-23T05:17:04;95514.34;;;0.16;100.00
45872;BME280;32333;55.844;-3.210;2024-02-23T05:19:31;95519.06;;;0.61;100.00
45872;BME280;32333;55.844;-3.210;2024-02-23T05:22:00;95518.96;;;0.69;100.00
45872;BME280;32333;55.844;-3.210;2024-02-23T05:24:27;95520.59;;;0.87;100.00
45872;BME280;32333;55.844;-3.210;2024-02-23T05:26:55;95525.57;;;0.93;100.00
45872;BME280;32333;55.844;-3.210;2024-02-23T05:29:24;95529.75;;;1.73;100.00
45872;BME280;32333;55.844;-3.210;2024-02-23T05:31:52;95532.82;;;1.10;100.00
45872;BME280;32333;55.844;-3.210;2024-02-23T05:34:21;95541.81;;;0.38;100.00
45872;BME280;32333;55.844;-3.210;2024-02-23T05:36:49;95547.16;;;0.41;100.00
45872;BME280;32333;55.844;-3.210;2024-02-23T05:39:17;95541.30;;;1.57;100.00
45872;BME280;32333;55.844;-3.210;2024-02-23T05:41:46;95534.27;;;1.45;100.00
45872;BME280;32333;55.844;-3.210;2024-02-23T05:44:35;95535.38;;;1.20;100.00
45872;BME280;32333;55.844;-3.210;2024-02-23T05:47:03;95532.83;;;0.77;100.00
45872;BME280;32333;55.844;-3.210;2024-02-23T05:49:31;95531.60;;;1.69;100.00
45872;BME280;32333;55.844;-3.210;2024-02-23T05:52:06;95534.50;;;1.21;100.00
45872;BME280;32333;55.844;-3.210;2024-02-23T05:54:34;95541.47;;;0.74;100.00
45872;BME280;32333;55.844;-3.210;2024-02-23T05:57:02;95536.47;;;0.08;100.00
45872;BME280;32333;55.844;-3.210;2024-02-23T05:59:30;95528.71;;;0.25;100.00
45872;BME280;32333;55.844;-3.210;2024-02-23T06:01:58;95535.84;;;0.33;100.00
45872;BME280;32333;55.844;-3.210;2024-02-23T06:04:26;95537.66;;;0.27;100.00
45872;BME280;32333;55.844;-3.210;2024-02-23T06:06:53;95537.03;;;0.23;100.00
45872;BME280;32333;55.844;-3.210;2024-02-23T06:09:21;95537.58;;;0.10;100.00
45872;BME280;32333;55.844;-3.210;2024-02-23T06:11:49;95540.47;;;0.47;100.00
45872;BME280;32333;55.844;-3.210;2024-02-23T06:14:37;95539.62;;;0.54;100.00
45872;BME280;32333;55.844;-3.210;2024-02-23T06:17:05;95538.60;;;0.97;100.00
45872;BME280;32333;55.844;-3.210;2024-02-23T06:19:33;95539.54;;;0.43;100.00
45872;BME280;32333;55.844;-3.210;2024-02-23T06:22:18;95539.14;;;1.05;100.00
45872;BME280;32333;55.844;-3.210;2024-02-23T06:24:46;95544.45;;;1.11;100.00
45872;BME280;32333;55.844;-3.210;2024-02-23T06:27:14;95544.27;;;1.30;100.00
45872;BME280;32333;55.844;-3.210;2024-02-23T06:29:43;95541.22;;;0.58;100.00
45872;BME280;32333;55.844;-3.210;2024-02-23T06:32:10;95540.46;;;0.79;100.00
45872;BME280;32333;55.844;-3.210;2024-02-23T06:34:38;95543.15;;;1.15;100.00
45872;BME280;32333;55.844;-3.210;2024-02-23T06:37:06;95546.81;;;0.74;100.00
45872;BME280;32333;55.844;-3.210;2024-02-23T06:39:33;95550.96;;;1.02;100.00
45872;BME280;32333;55.844;-3.210;2024-02-23T06:44:35;95556.68;;;1.09;100.00
45872;BME280;32333;55.844;-3.210;2024-02-23T06:47:03;95557.97;;;1.03;100.00
45872;BME280;32333;55.844;-3.210;2024-02-23T06:49:31;95562.69;;;1.56;100.00
45872;BME280;32333;55.844;-3.210;2024-02-23T06:51:59;95565.62;;;1.18;100.00
45872;BME280;32333;55.844;-3.210;2024-02-23T06:54:28;95565.26;;;0.93;100.00
45872;BME280;32333;55.844;-3.210;2024-02-23T06:56:56;95567.30;;;0.41;100.00
45872;BME280;32333;55.844;-3.210;2024-02-23T06:59:24;95568.95;;;0.76;100.00
45872;BME280;32333;55.844;-3.210;2024-02-23T07:01:52;95563.19;;;1.03;100.00
45872;BME280;32333;55.844;-3.210;2024-02-23T07:04:22;95567.89;;;0.98;100.00
45872;BME280;32333;55.844;-3.210;2024-02-23T07:06:50;95575.20;;;0.66;100.00
45872;BME280;32333;55.844;-3.210;2024-02-23T07:09:17;95572.58;;;0.36;100.00
45872;BME280;32333;55.844;-3.210;2024-02-23T07:11:45;95577.79;;;0.68;100.00
45872;BME280;32333;55.844;-3.210;2024-02-23T07:16:52;95591.69;;;0.63;100.00
45872;BME280;32333;55.844;-3.210;2024-02-23T07:19:19;95597.43;;;0.55;100.00
45872;BME280;32333;55.844;-3.210;2024-02-23T07:21:46;95599.66;;;0.12;100.00
45872;BME280;32333;55.844;-3.210;2024-02-23T07:24:14;95606.48;;;0.30;100.00
45872;BME280;32333;55.844;-3.210;2024-02-23T07:26:42;95607.31;;;0.80;100.00
45872;BME280;32333;55.844;-3.210;2024-02-23T07:29:11;95605.52;;;-0.24;100.00
45872;BME280;32333;55.844;-3.210;2024-02-23T07:31:47;95605.10;;;-0.54;100.00
45872;BME280;32333;55.844;-3.210;2024-02-23T07:34:15;95615.82;;;0.42;100.00
45872;BME280;32333;55.844;-3.210;2024-02-23T07:36:43;95618.15;;;-0.76;100.00
45872;BME280;32333;55.844;-3.210;2024-02-23T07:39:11;95613.70;;;0.53;100.00
45872;BME280;32333;55.844;-3.210;2024-02-23T07:41:39;95617.40;;;-0.03;100.00
45872;BME280;32333;55.844;-3.210;2024-02-23T07:44:35;95616.67;;;0.16;100.00
45872;BME280;32333;55.844;-3.210;2024-02-23T07:47:03;95619.90;;;0.27;100.00
45872;BME280;32333;55.844;-3.210;2024-02-23T07:49:33;95615.95;;;0.23;100.00
45872;BME280;32333;55.844;-3.210;2024-02-23T07:52:01;95619.19;;;0.10;100.00
45872;BME280;32333;55.844;-3.210;2024-02-23T07:54:29;95614.17;;;0.58;100.00
45872;BME280;32333;55.844;-3.210;2024-02-23T07:57:01;95617.12;;;0.29;100.00
45872;BME280;32333;55.844;-3.210;2024-02-23T07:59:29;95616.78;;;0.92;100.00
45872;BME280;32333;55.844;-3.210;2024-02-23T08:01:57;95613.32;;;0.88;100.00
45872;BME280;32333;55.844;-3.210;2024-02-23T08:04:25;95612.71;;;0.82;100.00
45872;BME280;32333;55.844;-3.210;2024-02-23T08:06:54;95615.85;;;0.94;100.00
45872;BME280;32333;55.844;-3.210;2024-02-23T08:09:22;95618.75;;;0.59;100.00
45872;BME280;32333;55.844;-3.210;2024-02-23T08:11:51;95620.24;;;0.69;100.00
45872;BME280;32333;55.844;-3.210;2024-02-23T08:14:35;95612.19;;;1.48;100.00
45872;BME280;32333;55.844;-3.210;2024-02-23T08:17:06;95613.55;;;1.67;100.00
45872;BME280;32333;55.844;-3.210;2024-02-23T08:19:34;95613.38;;;1.52;100.00
45872;BME280;32333;55.844;-3.210;2024-02-23T08:22:03;95611.79;;;1.67;100.00
45872;BME280;32333;55.844;-3.210;2024-02-23T08:24:32;95611.34;;;1.77;100.00
45872;BME280;32333;55.844;-3.210;2024-02-23T08:27:02;95615.93;;;2.31;100.00
45872;BME280;32333;55.844;-3.210;2024-02-23T08:29:29;95617.66;;;2.50;100.00
45872;BME280;32333;55.844;-3.210;2024-02-23T08:31:56;95618.73;;;2.09;100.00
45872;BME280;32333;55.844;-3.210;2024-02-23T08:34:24;95622.68;;;3.16;100.00
45872;BME280;32333;55.844;-3.210;2024-02-23T08:36:52;95625.08;;;3.19;100.00
45872;BME280;32333;55.844;-3.210;2024-02-23T08:39:20;95628.16;;;2.45;100.00
45872;BME280;32333;55.844;-3.210;2024-02-23T08:41:47;95634.61;;;2.15;100.00
45872;BME280;32333;55.844;-3.210;2024-02-23T08:44:35;95635.03;;;2.18;100.00
45872;BME280;32333;55.844;-3.210;2024-02-23T08:47:02;95638.57;;;1.77;100.00
45872;BME280;32333;55.844;-3.210;2024-02-23T08:49:31;95640.63;;;1.39;100.00
45872;BME280;32333;55.844;-3.210;2024-02-23T08:51:59;95647.07;;;1.69;100.00
45872;BME280;32333;55.844;-3.210;2024-02-23T08:54:28;95657.14;;;1.91;100.00
45872;BME280;32333;55.844;-3.210;2024-02-23T08:56:56;95660.68;;;2.15;100.00
45872;BME280;32333;55.844;-3.210;2024-02-23T08:59:24;95667.67;;;1.34;100.00
45872;BME280;32333;55.844;-3.210;2024-02-23T09:01:56;95669.62;;;1.07;100.00
45872;BME280;32333;55.844;-3.210;2024-02-23T09:04:24;95675.39;;;0.76;100.00
45872;BME280;32333;55.844;-3.210;2024-02-23T09:06:52;95671.57;;;1.83;100.00
45872;BME280;32333;55.844;-3.210;2024-02-23T09:09:21;95669.27;;;0.91;100.00
45872;BME280;32333;55.844;-3.210;2024-02-23T09:11:50;95670.94;;;1.51;100.00
45872;BME280;32333;55.844;-3.210;2024-02-23T09:14:37;95674.20;;;0.70;100.00
45872;BME280;32333;55.844;-3.210;2024-02-23T09:17:06;95675.46;;;0.50;100.00
45872;BME280;32333;55.844;-3.210;2024-02-23T09:19:33;95684.80;;;0.59;100.00
45872;BME280;32333;55.844;-3.210;2024-02-23T09:22:01;95687.36;;;1.10;100.00
45872;BME280;32333;55.844;-3.210;2024-02-23T09:24:29;95686.25;;;0.73;100.00
45872;BME280;32333;55.844;-3.210;2024-02-23T09:26:58;95690.83;;;0.44;100.00
45872;BME280;32333;55.844;-3.210;2024-02-23T09:29:25;95699.30;;;1.18;100.00
45872;BME280;32333;55.844;-3.210;2024-02-23T09:31:52;95702.08;;;0.72;100.00
45872;BME280;32333;55.844;-3.210;2024-02-23T09:34:20;95708.26;;;0.75;100.00
45872;BME280;32333;55.844;-3.210;2024-02-23T09:36:47;95707.20;;;0.25;100.00
45872;BME280;32333;55.844;-3.210;2024-02-23T09:39:14;95715.90;;;0.88;100.00
45872;BME280;32333;55.844;-3.210;2024-02-23T09:41:42;95714.92;;;0.61;100.00
45872;BME280;32333;55.844;-3.210;2024-02-23T09:44:35;95721.64;;;1.33;100.00
45872;BME280;32333;55.844;-3.210;2024-02-23T09:47:04;95723.96;;;1.17;100.00
45872;BME280;32333;55.844;-3.210;2024-02-23T09:49:32;95725.40;;;1.19;100.00
45872;BME280;32333;55.844;-3.210;2024-02-23T09:52:01;95729.27;;;1.10;100.00
45872;BME280;32333;55.844;-3.210;2024-02-23T09:54:28;95730.82;;;0.77;100.00
45872;BME280;32333;55.844;-3.210;2024-02-23T09:56:56;95731.41;;;1.11;100.00
45872;BME280;32333;55.844;-3.210;2024-02-23T09:59:24;95729.10;;;0.90;100.00
45872;BME280;32333;55.844;-3.210;2024-02-23T10:01:51;95729.51;;;1.26;100.00
45872;BME280;32333;55.844;-3.210;2024-02-23T10:04:19;95733.44;;;1.13;100.00
45872;BME280;32333;55.844;-3.210;2024-02-23T10:06:47;95735.69;;;0.77;100.00
45872;BME280;32333;55.844;-3.210;2024-02-23T10:09:14;95731.23;;;0.98;100.00
45872;BME280;32333;55.844;-3.210;2024-02-23T10:11:42;95748.84;;;0.60;100.00
45872;BME280;32333;55.844;-3.210;2024-02-23T10:14:35;95745.96;;;1.39;100.00
45872;BME280;32333;55.844;-3.210;2024-02-23T10:17:03;95749.22;;;0.46;100.00
45872;BME280;32333;55.844;-3.210;2024-02-23T10:19:33;95750.98;;;1.06;100.00
45872;BME280;32333;55.844;-3.210;2024-02-23T10:22:02;95756.67;;;0.87;100.00
45872;BME280;32333;55.844;-3.210;2024-02-23T10:24:29;95754.94;;;0.87;100.00
45872;BME280;32333;55.844;-3.210;2024-02-23T10:26:56;95755.00;;;1.15;100.00
45872;BME280;32333;55.844;-3.210;2024-02-23T10:29:23;95768.70;;;0.52;100.00
45872;BME280;32333;55.844;-3.210;2024-02-23T10:31:52;95778.32;;;0.77;100.00
45872;BME280;32333;55.844;-3.210;2024-02-23T10:34:23;95786.64;;;0.75;100.00
45872;BME280;32333;55.844;-3.210;2024-02-23T10:36:53;95793.13;;;1.17;100.00
45872;BME280;32333;55.844;-3.210;2024-02-23T10:39:25;95795.05;;;0.46;100.00
45872;BME280;32333;55.844;-3.210;2024-02-23T10:41:57;95801.61;;;0.51;100.00
45872;BME280;32333;55.844;-3.210;2024-02-23T10:44:37;95815.85;;;1.04;100.00
45872;BME280;32333;55.844;-3.210;2024-02-23T10:47:05;95815.69;;;0.91;100.00
45872;BME280;32333;55.844;-3.210;2024-02-23T10:49:33;95823.25;;;1.47;100.00
45872;BME280;32333;55.844;-3.210;2024-02-23T10:52:02;95829.93;;;0.87;100.00
45872;BME280;32333;55.844;-3.210;2024-02-23T10:54:31;95832.92;;;1.20;100.00
45872;BME280;32333;55.844;-3.210;2024-02-23T10:56:59;95832.81;;;1.76;100.00
45872;BME280;32333;55.844;-3.210;2024-02-23T10:59:27;95833.62;;;1.63;100.00
45872;BME280;32333;55.844;-3.210;2024-02-23T11:01:55;95838.20;;;1.77;100.00
45872;BME280;32333;55.844;-3.210;2024-02-23T11:04:24;95836.88;;;1.47;100.00
45872;BME280;32333;55.844;-3.210;2024-02-23T11:06:53;95841.20;;;1.57;100.00
45872;BME280;32333;55.844;-3.210;2024-02-23T11:09:21;95842.15;;;1.49;100.00
45872;BME280;32333;55.844;-3.210;2024-02-23T11:11:54;95843.21;;;2.09;100.00
45872;BME280;32333;55.844;-3.210;2024-02-23T11:14:36;95846.35;;;2.46;100.00
45872;BME280;32333;55.844;-3.210;2024-02-23T11:17:05;95847.84;;;1.99;100.00
45872;BME280;32333;55.844;-3.210;2024-02-23T11:19:33;95846.44;;;1.76;100.00
45872;BME280;32333;55.844;-3.210;2024-02-23T11:22:01;95844.49;;;2.13;100.00
45872;BME280;32333;55.844;-3.210;2024-02-23T11:24:29;95847.08;;;2.40;100.00
45872;BME280;32333;55.844;-3.210;2024-02-23T11:26:57;95850.72;;;3.33;100.00
45872;BME280;32333;55.844;-3.210;2024-02-23T11:29:26;95852.22;;;3.28;100.00
45872;BME280;32333;55.844;-3.210;2024-02-23T11:31:55;95854.15;;;3.43;100.00
45872;BME280;32333;55.844;-3.210;2024-02-23T11:34:24;95851.71;;;3.21;100.00
45872;BME280;32333;55.844;-3.210;2024-02-23T11:38:39;95859.65;;;4.78;100.00
45872;BME280;32333;55.844;-3.210;2024-02-23T11:41:07;95869.24;;;4.58;100.00
45872;BME280;32333;55.844;-3.210;2024-02-23T11:44:34;95869.52;;;4.56;100.00
45872;BME280;32333;55.844;-3.210;2024-02-23T11:47:02;95872.35;;;4.86;100.00
45872;BME280;32333;55.844;-3.210;2024-02-23T11:49:30;95871.48;;;4.25;100.00
45872;BME280;32333;55.844;-3.210;2024-02-23T11:52:03;95866.71;;;4.16;100.00
45872;BME280;32333;55.844;-3.210;2024-02-23T11:54:31;95870.03;;;3.54;100.00
45872;BME280;32333;55.844;-3.210;2024-02-23T11:56:58;95868.34;;;3.48;100.00
45872;BME280;32333;55.844;-3.210;2024-02-23T11:59:26;95872.43;;;2.98;100.00
45872;BME280;32333;55.844;-3.210;2024-02-23T12:01:54;95876.29;;;2.67;100.00
45872;BME280;32333;55.844;-3.210;2024-02-23T12:04:22;95875.74;;;2.07;100.00
45872;BME280;32333;55.844;-3.210;2024-02-23T12:06:50;95881.31;;;1.90;100.00
45872;BME280;32333;55.844;-3.210;2024-02-23T12:09:22;95886.15;;;1.56;100.00
45872;BME280;32333;55.844;-3.210;2024-02-23T12:11:49;95888.30;;;1.43;100.00
45872;BME280;32333;55.844;-3.210;2024-02-23T12:14:35;95889.88;;;1.79;100.00
45872;BME280;32333;55.844;-3.210;2024-02-23T12:17:03;95891.65;;;1.75;100.00
45872;BME280;32333;55.844;-3.210;2024-02-23T12:19:30;95895.71;;;1.33;100.00
45872;BME280;32333;55.844;-3.210;2024-02-23T12:22:00;95902.22;;;2.20;100.00
45872;BME280;32333;55.844;-3.210;2024-02-23T12:24:30;95905.90;;;2.01;100.00
45872;BME280;32333;55.844;-3.210;2024-02-23T12:26:58;95909.42;;;2.12;100.00
45872;BME280;32333;55.844;-3.210;2024-02-23T12:29:25;95912.21;;;1.84;100.00
45872;BME280;32333;55.844;-3.210;2024-02-23T12:32:03;95910.97;;;1.98;100.00
45872;BME280;32333;55.844;-3.210;2024-02-23T12:34:30;95910.51;;;1.60;100.00
45872;BME280;32333;55.844;-3.210;2024-02-23T12:36:59;95909.06;;;2.07;100.00
45872;BME280;32333;55.844;-3.210;2024-02-23T12:39:26;95910.79;;;2.14;100.00
45872;BME280;32333;55.844;-3.210;2024-02-23T12:41:54;95916.84;;;1.39;100.00
45872;BME280;32333;55.844;-3.210;2024-02-23T12:44:34;95914.59;;;1.69;100.00
45872;BME280;32333;55.844;-3.210;2024-02-23T12:47:05;95923.80;;;1.08;100.00
45872;BME280;32333;55.844;-3.210;2024-02-23T12:49:32;95920.99;;;1.17;100.00
45872;BME280;32333;55.844;-3.210;2024-02-23T12:52:00;95919.96;;;1.61;100.00
45872;BME280;32333;55.844;-3.210;2024-02-23T12:54:27;95923.20;;;1.33;100.00
45872;BME280;32333;55.844;-3.210;2024-02-23T12:56:54;95919.10;;;1.95;100.00
45872;BME280;32333;55.844;-3.210;2024-02-23T12:59:22;95920.55;;;1.96;100.00
45872;BME280;32333;55.844;-3.210;2024-02-23T13:01:50;95924.76;;;2.80;100.00
45872;BME280;32333;55.844;-3.210;2024-02-23T13:04:17;95920.92;;;2.60;100.00
45872;BME280;32333;55.844;-3.210;2024-02-23T13:06:44;95924.51;;;2.24;100.00
45872;BME280;32333;55.844;-3.210;2024-02-23T13:09:11;95922.95;;;2.87;100.00
45872;BME280;32333;55.844;-3.210;2024-02-23T13:11:39;95919.86;;;3.10;100.00
45872;BME280;32333;55.844;-3.210;2024-02-23T13:14:35;95916.89;;;3.04;100.00
45872;BME280;32333;55.844;-3.210;2024-02-23T13:17:03;95922.41;;;3.07;100.00
45872;BME280;32333;55.844;-3.210;2024-02-23T13:19:30;95922.71;;;3.03;100.00
45872;BME280;32333;55.844;-3.210;2024-02-23T13:21:59;95917.29;;;3.76;100.00
45872;BME280;32333;55.844;-3.210;2024-02-23T13:24:26;95922.90;;;3.85;100.00
45872;BME280;32333;55.844;-3.210;2024-02-23T13:26:54;95923.00;;;4.04;100.00